Time;durP1;ratioP1;P1;durP2;ratioP2;P2;SDS_P1;SDS_P2;PMS_P1;PMS_P2;Temp;Humidity;BMP_temperature;BMP_pressure;BME280_temperature;BME280_humidity;BME280_pressure;Samples;Min_cycle;Max_cycle;Signal;HPM_P1;HPM_P2
2024/01/06 00:00:36;;;;;;;15.85;9.43;;;;;;;-145.63;100.00;61273.97;5085262;28;20323;-67
2024/01/06 00:03:02;;;;;;;13.48;9.23;;;;;;;-145.63;100.00;61273.97;5073110;28;20032;-66
2024/01/06 00:05:28;;;;;;;15.18;8.90;;;;;;;-145.63;100.00;61273.97;5053714;28;20031;-67
2024/01/06 00:07:53;;;;;;;16.25;9.93;;;;;;;-145.63;100.00;61273.97;5085038;28;20334;-65
2024/01/06 00:10:19;;;;;;;13.68;8.98;;;;;;;-145.63;100.00;61273.97;5085383;28;20024;-66
2024/01/06 00:12:45;;;;;;;12.55;8.63;;;;;;;-145.63;100.00;61273.97;5083329;28;20112;-66
2024/01/06 00:15:11;;;;;;;15.48;9.27;;;;;;;-145.63;100.00;61273.97;5085638;28;20051;-65
2024/01/06 00:17:37;;;;;;;15.55;9.48;;;;;;;-145.63;100.00;61273.97;5076546;28;20029;-66
2024/01/06 00:20:03;;;;;;;16.42;9.48;;;;;;;-145.63;100.00;61273.97;5068784;28;20300;-66
2024/01/06 00:22:30;;;;;;;14.65;9.95;;;;;;;-145.63;100.00;61273.97;5085198;28;20332;-66
2024/01/06 00:24:55;;;;;;;16.27;9.60;;;;;;;-145.63;100.00;61273.97;5065473;28;20032;-65
2024/01/06 00:27:21;;;;;;;14.40;9.63;;;;;;;-145.63;100.00;61273.97;5079629;28;20048;-66
2024/01/06 00:29:47;;;;;;;15.40;9.45;;;;;;;-145.63;100.00;61273.97;5073757;28;20045;-66
2024/01/06 00:32:13;;;;;;;16.50;10.18;;;;;;;-145.63;100.00;61273.97;5069484;28;20511;-67
2024/01/06 00:34:38;;;;;;;15.75;10.35;;;;;;;-145.63;100.00;61273.97;5084167;28;20032;-67
2024/01/06 00:37:04;;;;;;;15.05;9.57;;;;;;;-145.63;100.00;61273.97;5064650;28;20067;-67
2024/01/06 00:39:30;;;;;;;16.27;10.15;;;;;;;-145.63;100.00;61273.97;5064593;28;20029;-66
2024/01/06 00:41:55;;;;;;;17.23;10.13;;;;;;;-145.63;100.00;61273.97;5064440;28;20025;-66
2024/01/06 00:44:21;;;;;;;20.15;10.45;;;;;;;-145.63;100.00;61273.97;5064569;28;20222;-66
2024/01/06 00:46:47;;;;;;;16.50;9.98;;;;;;;-145.63;100.00;61273.97;5046480;28;20466;-67
2024/01/06 00:49:13;;;;;;;18.70;10.63;;;;;;;-145.63;100.00;61273.97;5064187;28;20055;-67
2024/01/06 00:51:38;;;;;;;14.80;10.50;;;;;;;-145.63;100.00;61273.97;5081053;28;20059;-67
2024/01/06 00:54:04;;;;;;;18.77;10.52;;;;;;;-145.63;100.00;61273.97;5072235;28;20025;-67
2024/01/06 00:56:29;;;;;;;16.27;10.68;;;;;;;-145.63;100.00;61273.97;5064100;28;20190;-67
2024/01/06 00:58:55;;;;;;;16.42;10.07;;;;;;;-145.63;100.00;61273.97;5063786;28;20036;-67
2024/01/06 01:01:21;;;;;;;19.30;10.13;;;;;;;-145.63;100.00;61273.97;5064181;28;20028;-67
2024/01/06 01:03:47;;;;;;;16.08;9.45;;;;;;;-145.63;100.00;61273.97;5081574;28;20035;-67
2024/01/06 01:06:13;;;;;;;15.82;9.80;;;;;;;-145.63;100.00;61273.97;5070805;28;20049;-67
2024/01/06 01:08:38;;;;;;;16.00;10.27;;;;;;;-145.63;100.00;61273.97;5055151;28;20192;-66
2024/01/06 01:11:04;;;;;;;17.63;10.93;;;;;;;-145.63;100.00;61273.97;5047071;28;20033;-67
2024/01/06 01:13:30;;;;;;;15.05;10.15;;;;;;;-145.63;100.00;61273.97;5063764;28;20029;-66
2024/01/06 01:15:56;;;;;;;17.05;10.65;;;;;;;-145.63;100.00;61273.97;5063471;28;20028;-66
2024/01/06 01:18:21;;;;;;;15.65;10.73;;;;;;;-145.63;100.00;61273.97;5063993;28;20024;-68
2024/01/06 01:20:47;;;;;;;18.40;11.10;;;;;;;-145.63;100.00;61273.97;5063177;28;20046;-66
2024/01/06 01:23:13;;;;;;;18.08;10.15;;;;;;;-145.63;100.00;61273.97;5063633;28;20028;-66
2024/01/06 01:25:38;;;;;;;17.45;10.43;;;;;;;-145.63;100.00;61273.97;5063408;28;20446;-66
2024/01/06 01:28:04;;;;;;;15.43;10.40;;;;;;;-145.63;100.00;61273.97;5043940;28;20292;-66
2024/01/06 01:30:32;;;;;;;17.58;10.80;;;;;;;-145.63;100.00;61273.97;5058819;28;20029;-66
2024/01/06 01:32:58;;;;;;;17.08;10.45;;;;;;;-145.63;100.00;61273.97;5073932;28;20078;-67
2024/01/06 01:35:24;;;;;;;16.67;10.35;;;;;;;-145.63;100.00;61273.97;5086205;28;20040;-67
2024/01/06 01:37:49;;;;;;;18.80;11.15;;;;;;;-145.63;100.00;61273.97;5085479;28;20032;-68
2024/01/06 01:40:15;;;;;;;15.05;10.15;;;;;;;-145.63;100.00;61273.97;5103600;28;20396;-66
2024/01/06 01:42:44;;;;;;;16.20;10.60;;;;;;;-145.63;100.00;61273.97;5086477;28;20025;-66
2024/01/06 01:45:10;;;;;;;19.42;11.90;;;;;;;-145.63;100.00;61273.97;5053180;28;20229;-67
2024/01/06 01:47:37;;;;;;;22.90;11.15;;;;;;;-145.63;100.00;61273.97;5070898;28;20021;-66
2024/01/06 01:50:03;;;;;;;18.27;11.63;;;;;;;-145.63;100.00;61273.97;5082921;28;20331;-68
2024/01/06 01:52:30;;;;;;;17.65;10.85;;;;;;;-145.63;100.00;61273.97;5083117;28;20028;-67
2024/01/06 01:54:57;;;;;;;21.77;10.95;;;;;;;-145.63;100.00;61273.97;5064516;28;20067;-67
2024/01/06 01:57:25;;;;;;;19.02;11.23;;;;;;;-145.63;100.00;61273.97;5077113;28;20087;-66
2024/01/06 01:59:52;;;;;;;17.85;10.80;;;;;;;-145.63;100.00;61273.97;5092749;28;20048;-67
2024/01/06 02:02:18;;;;;;;18.42;10.85;;;;;;;-145.63;100.00;61273.97;5098385;28;20079;-66
2024/01/06 02:04:45;;;;;;;17.17;10.00;;;;;;;-145.63;100.00;61273.97;5082590;28;20052;-66
2024/01/06 02:07:10;;;;;;;17.25;9.75;;;;;;;-145.63;100.00;61273.97;5069850;28;20095;-67
2024/01/06 02:09:37;;;;;;;14.90;10.98;;;;;;;-145.63;100.00;61273.97;5083452;28;20347;-68
2024/01/06 02:12:03;;;;;;;17.75;9.93;;;;;;;-145.63;100.00;61273.97;5082615;28;20111;-67
2024/01/06 02:14:28;;;;;;;17.10;10.60;;;;;;;-145.63;100.00;61273.97;5076549;28;20301;-68
2024/01/06 02:16:54;;;;;;;16.42;10.23;;;;;;;-145.63;100.00;61273.97;5064325;28;20044;-67
2024/01/06 02:19:20;;;;;;;17.00;10.35;;;;;;;-145.63;100.00;61273.97;5064858;28;20059;-67
2024/01/06 02:21:52;;;;;;;20.55;12.20;;;;;;;-145.63;100.00;61273.97;5065366;28;20025;-66
2024/01/06 02:24:18;;;;;;;17.50;10.07;;;;;;;-145.63;100.00;61273.97;5075658;28;20032;-68
2024/01/06 02:26:43;;;;;;;16.77;10.60;;;;;;;-145.63;100.00;61273.97;5073837;28;20264;-67
2024/01/06 02:29:09;;;;;;;16.85;10.13;;;;;;;-145.63;100.00;61273.97;5065494;28;20027;-67
2024/01/06 02:31:35;;;;;;;16.77;10.13;;;;;;;-145.63;100.00;61273.97;5082440;28;20029;-67
2024/01/06 02:34:00;;;;;;;18.02;10.45;;;;;;;-145.63;100.00;61273.97;5063501;28;20033;-67
2024/01/06 02:36:26;;;;;;;14.60;9.77;;;;;;;-145.63;100.00;61273.97;5091056;28;20288;-67
2024/01/06 02:38:51;;;;;;;17.10;10.40;;;;;;;-145.63;100.00;61273.97;5102538;28;20032;-67
2024/01/06 02:41:17;;;;;;;17.63;10.40;;;;;;;-145.63;100.00;61273.97;5098056;28;20032;-65
2024/01/06 02:43:43;;;;;;;16.55;11.02;;;;;;;-145.63;100.00;61273.97;5082740;28;20182;-67
2024/01/06 02:46:08;;;;;;;18.45;10.48;;;;;;;-145.63;100.00;61273.97;5062442;28;20297;-67
2024/01/06 02:48:34;;;;;;;16.55;10.30;;;;;;;-145.63;100.00;61273.97;5059623;28;20028;-68
2024/01/06 02:51:00;;;;;;;17.58;10.77;;;;;;;-145.63;100.00;61273.97;5081901;28;20391;-67
2024/01/06 02:53:25;;;;;;;16.13;10.07;;;;;;;-145.63;100.00;61273.97;5076596;28;20025;-66
2024/01/06 02:55:51;;;;;;;17.77;10.45;;;;;;;-145.63;100.00;61273.97;5062843;28;20160;-68
2024/01/06 02:58:16;;;;;;;19.50;10.40;;;;;;;-145.63;100.00;61273.97;5082126;28;20040;-67
2024/01/06 03:00:42;;;;;;;17.88;9.73;;;;;;;-145.63;100.00;61273.97;5081556;28;20378;-67
2024/01/06 03:03:08;;;;;;;15.43;9.88;;;;;;;-145.63;100.00;61273.97;5052757;28;20032;-67
2024/01/06 03:05:34;;;;;;;16.02;10.27;;;;;;;-145.63;100.00;61273.97;5075196;28;20024;-66
2024/01/06 03:07:59;;;;;;;15.38;9.23;;;;;;;-145.63;100.00;61273.97;5086615;28;20036;-67
2024/01/06 03:10:25;;;;;;;17.58;10.25;;;;;;;-145.63;100.00;61273.97;5062589;28;20028;-66
2024/01/06 03:12:51;;;;;;;16.88;10.07;;;;;;;-145.63;100.00;61273.97;5061700;28;20029;-67
2024/01/06 03:15:17;;;;;;;19.02;9.50;;;;;;;-145.63;100.00;61273.97;5074721;28;20104;-67
2024/01/06 03:17:42;;;;;;;16.80;9.68;;;;;;;-145.63;100.00;61273.97;5082135;28;20059;-66
2024/01/06 03:20:09;;;;;;;15.75;9.90;;;;;;;-145.63;100.00;61273.97;5079278;28;20048;-67
2024/01/06 03:22:34;;;;;;;18.17;10.43;;;;;;;-145.63;100.00;61273.97;5062159;28;20021;-68
2024/01/06 03:25:00;;;;;;;18.55;9.95;;;;;;;-145.63;100.00;61273.97;5098888;28;20062;-67
2024/01/06 03:27:26;;;;;;;16.00;9.95;;;;;;;-145.63;100.00;61273.97;5088443;28;20042;-67
2024/01/06 03:29:51;;;;;;;17.10;10.20;;;;;;;-145.63;100.00;61273.97;5073010;28;20028;-66
2024/01/06 03:32:17;;;;;;;15.50;9.57;;;;;;;-145.63;100.00;61273.97;5048253;28;20113;-68
2024/01/06 03:34:42;;;;;;;18.10;10.48;;;;;;;-145.63;100.00;61273.97;5081836;28;20024;-67
2024/01/06 03:37:08;;;;;;;16.65;10.10;;;;;;;-145.63;100.00;61273.97;5044841;28;20087;-67
2024/01/06 03:39:34;;;;;;;16.83;10.45;;;;;;;-145.63;100.00;61273.97;5072755;28;20040;-67
2024/01/06 03:42:00;;;;;;;16.55;10.07;;;;;;;-145.63;100.00;61273.97;5075467;28;20020;-67
2024/01/06 03:44:30;;;;;;;15.90;9.80;;;;;;;-145.63;100.00;61273.97;5060341;28;20033;-66
2024/01/06 03:46:59;;;;;;;16.10;9.93;;;;;;;-145.63;100.00;61273.97;5046156;28;20384;-67
2024/01/06 03:49:25;;;;;;;17.52;10.80;;;;;;;-145.63;100.00;61273.97;5065486;28;20076;-67
2024/01/06 03:51:51;;;;;;;17.63;10.45;;;;;;;-145.63;100.00;61273.97;5082247;28;20017;-66
2024/01/06 03:54:17;;;;;;;16.58;10.15;;;;;;;-145.63;100.00;61273.97;5073051;28;20033;-68
2024/01/06 03:56:43;;;;;;;16.50;10.00;;;;;;;-145.63;100.00;61273.97;5057554;28;20049;-66
2024/01/06 03:59:09;;;;;;;18.55;10.52;;;;;;;-145.63;100.00;61273.97;5047985;28;20376;-67
2024/01/06 04:01:35;;;;;;;19.30;10.48;;;;;;;-145.63;100.00;61273.97;5065202;28;20346;-67
2024/01/06 04:04:05;;;;;;;17.33;10.13;;;;;;;-145.63;100.00;61273.97;5046808;28;20036;-67
2024/01/06 04:06:34;;;;;;;21.08;9.60;;;;;;;-145.63;100.00;61273.97;5071309;28;20032;-65
2024/01/06 04:09:01;;;;;;;17.88;9.82;;;;;;;-145.63;100.00;61273.97;5055300;28;20351;-67
2024/01/06 04:11:27;;;;;;;14.77;10.27;;;;;;;-145.63;100.00;61273.97;5050948;28;20017;-67
2024/01/06 04:13:52;;;;;;;18.77;11.20;;;;;;;-145.63;100.00;61273.97;5064562;28;20051;-69
2024/01/06 04:16:19;;;;;;;17.17;10.38;;;;;;;-145.63;100.00;61273.97;5065000;28;20029;-67
2024/01/06 04:18:44;;;;;;;15.90;9.40;;;;;;;-145.63;100.00;61273.97;5048941;28;20028;-66
2024/01/06 04:21:11;;;;;;;18.67;10.85;;;;;;;-145.63;100.00;61273.97;5055889;28;20021;-68
2024/01/06 04:23:36;;;;;;;21.02;10.90;;;;;;;-145.63;100.00;61273.97;5058268;28;20033;-67
2024/01/06 04:26:04;;;;;;;15.20;10.40;;;;;;;-145.63;100.00;61273.97;5046299;28;20195;-66
2024/01/06 04:28:30;;;;;;;17.67;10.73;;;;;;;-145.63;100.00;61273.97;5064687;28;20048;-67
2024/01/06 04:30:55;;;;;;;20.88;11.13;;;;;;;-145.63;100.00;61273.97;5047303;28;20396;-67
2024/01/06 04:33:21;;;;;;;18.27;11.32;;;;;;;-145.63;100.00;61273.97;5069074;28;20042;-66
2024/01/06 04:35:46;;;;;;;17.05;10.63;;;;;;;-145.63;100.00;61273.97;5090641;28;20066;-66
2024/01/06 04:38:12;;;;;;;17.05;9.98;;;;;;;-145.63;100.00;61273.97;5104679;28;20040;-68
2024/01/06 04:40:38;;;;;;;18.85;11.32;;;;;;;-145.63;100.00;61273.97;5104567;28;20504;-66
2024/01/06 04:43:03;;;;;;;18.75;11.05;;;;;;;-145.63;100.00;61273.97;5086404;28;20034;-66
2024/01/06 04:45:29;;;;;;;18.58;10.18;;;;;;;-145.63;100.00;61273.97;5071020;28;20322;-67
2024/01/06 04:47:55;;;;;;;17.55;11.20;;;;;;;-145.63;100.00;61273.97;5072844;28;20028;-67
2024/01/06 04:50:20;;;;;;;18.30;11.23;;;;;;;-145.63;100.00;61273.97;5066053;28;20265;-67
2024/01/06 04:52:46;;;;;;;20.65;11.35;;;;;;;-145.63;100.00;61273.97;5083809;28;20020;-68
2024/01/06 04:55:12;;;;;;;17.30;10.27;;;;;;;-145.63;100.00;61273.97;5084283;28;20028;-67
2024/01/06 04:57:38;;;;;;;19.13;10.93;;;;;;;-145.63;100.00;61273.97;5069639;28;20278;-67
2024/01/06 05:00:04;;;;;;;19.67;11.45;;;;;;;-145.63;100.00;61273.97;5073878;28;20028;-67
2024/01/06 05:02:31;;;;;;;21.83;12.30;;;;;;;-145.63;100.00;61273.97;5079042;28;20073;-67
2024/01/06 05:04:57;;;;;;;19.25;11.57;;;;;;;-145.63;100.00;61273.97;5064422;28;20033;-67
2024/01/06 05:07:23;;;;;;;20.20;11.95;;;;;;;-145.63;100.00;61273.97;5084166;28;20048;-67
2024/01/06 05:09:48;;;;;;;18.80;11.02;;;;;;;-145.63;100.00;61273.97;5082827;28;20052;-67
2024/01/06 05:12:14;;;;;;;20.92;11.27;;;;;;;-145.63;100.00;61273.97;5066268;28;20024;-67
2024/01/06 05:14:40;;;;;;;22.65;11.45;;;;;;;-145.63;100.00;61273.97;5077370;28;20051;-66
2024/01/06 05:17:05;;;;;;;17.52;10.75;;;;;;;-145.63;100.00;61273.97;5065222;28;20317;-67
2024/01/06 05:19:31;;;;;;;18.83;11.25;;;;;;;-145.63;100.00;61273.97;5083882;28;20024;-66
2024/01/06 05:21:57;;;;;;;20.45;11.38;;;;;;;-145.63;100.00;61273.97;5066635;28;20033;-68
2024/01/06 05:24:23;;;;;;;18.50;11.90;;;;;;;-145.63;100.00;61273.97;5075841;28;20301;-66
2024/01/06 05:26:49;;;;;;;16.00;10.27;;;;;;;-145.63;100.00;61273.97;5058178;28;20033;-67
2024/01/06 05:29:14;;;;;;;21.33;12.63;;;;;;;-145.63;100.00;61273.97;5066087;28;20050;-67
2024/01/06 05:31:40;;;;;;;18.55;11.13;;;;;;;-145.63;100.00;61273.97;5083547;28;20294;-67
2024/01/06 05:34:06;;;;;;;19.08;12.15;;;;;;;-145.63;100.00;61273.97;5065392;28;20028;-67
2024/01/06 05:36:32;;;;;;;20.48;12.88;;;;;;;-145.63;100.00;61273.97;5064251;28;20111;-67
2024/01/06 05:39:00;;;;;;;18.08;10.95;;;;;;;-145.63;100.00;61273.97;5054622;28;20041;-67
2024/01/06 05:41:26;;;;;;;20.33;11.88;;;;;;;-145.63;100.00;61273.97;5047308;28;20017;-66
2024/01/06 05:43:51;;;;;;;19.58;11.85;;;;;;;-145.63;100.00;61273.97;5063166;28;20032;-67
2024/01/06 05:46:21;;;;;;;20.02;11.73;;;;;;;-145.63;100.00;61273.97;5043834;28;20049;-67
2024/01/06 05:48:47;;;;;;;19.50;12.18;;;;;;;-145.63;100.00;61273.97;5058048;28;20029;-67
2024/01/06 05:51:12;;;;;;;18.73;11.32;;;;;;;-145.63;100.00;61273.97;5063017;28;20017;-67
2024/01/06 05:53:38;;;;;;;19.70;11.80;;;;;;;-145.63;100.00;61273.97;5057582;28;20021;-66
2024/01/06 05:56:04;;;;;;;16.80;10.68;;;;;;;-145.63;100.00;61273.97;5044128;28;20025;-67
2024/01/06 05:58:29;;;;;;;20.23;11.82;;;;;;;-145.63;100.00;61273.97;5062947;28;20086;-66
2024/01/06 06:00:55;;;;;;;20.20;10.98;;;;;;;-145.63;100.00;61273.97;5062819;28;20040;-67
2024/01/06 06:03:21;;;;;;;17.67;11.05;;;;;;;-145.63;100.00;61273.97;5050593;28;20033;-67
2024/01/06 06:05:46;;;;;;;22.15;12.30;;;;;;;-145.63;100.00;61273.97;5056101;28;20029;-67
2024/01/06 06:08:12;;;;;;;23.77;12.05;;;;;;;-145.63;100.00;61273.97;5065320;28;20312;-66
2024/01/06 06:10:51;;;;;;;18.80;11.18;;;;;;;-145.63;100.00;61273.97;5042706;28;20203;-66
2024/01/06 06:13:16;;;;;;;23.25;12.10;;;;;;;-145.63;100.00;61273.97;5042807;28;20329;-68
2024/01/06 06:15:42;;;;;;;19.55;11.90;;;;;;;-145.63;100.00;61273.97;5042504;28;20059;-66
2024/01/06 06:18:08;;;;;;;20.48;10.88;;;;;;;-145.63;100.00;61273.97;5052423;28;20028;-67
2024/01/06 06:20:33;;;;;;;17.77;11.00;;;;;;;-145.63;100.00;61273.97;5057821;28;20032;-67
2024/01/06 06:22:59;;;;;;;20.20;11.93;;;;;;;-145.63;100.00;61273.97;5042503;28;20229;-66
2024/01/06 06:25:25;;;;;;;21.95;12.40;;;;;;;-145.63;100.00;61273.97;5062551;28;20035;-67
2024/01/06 06:27:50;;;;;;;20.90;12.20;;;;;;;-145.63;100.00;61273.97;5047116;28;20199;-66
2024/01/06 06:30:16;;;;;;;19.58;11.98;;;;;;;-145.63;100.00;61273.97;5052914;28;20036;-66
2024/01/06 06:32:42;;;;;;;18.75;11.95;;;;;;;-145.63;100.00;61273.97;5056384;28;20025;-66
2024/01/06 06:35:07;;;;;;;25.42;13.13;;;;;;;-145.63;100.00;61273.97;5043225;28;20298;-67
2024/01/06 06:37:33;;;;;;;24.02;13.35;;;;;;;-145.63;100.00;61273.97;5062397;28;20036;-66
2024/01/06 06:39:59;;;;;;;22.25;13.52;;;;;;;-145.63;100.00;61273.97;5045865;28;20037;-66
2024/01/06 06:42:26;;;;;;;23.17;12.68;;;;;;;-145.63;100.00;61273.97;5054044;28;20025;-67
2024/01/06 06:44:51;;;;;;;22.20;12.77;;;;;;;-145.63;100.00;61273.97;5055049;28;20306;-67
2024/01/06 06:47:19;;;;;;;22.10;13.57;;;;;;;-145.63;100.00;61273.97;5044854;28;20025;-67
2024/01/06 06:49:44;;;;;;;23.40;13.55;;;;;;;-145.63;100.00;61273.97;5062327;28;20040;-66
2024/01/06 06:52:12;;;;;;;24.77;13.30;;;;;;;-145.63;100.00;61273.97;5062531;28;20033;-68
2024/01/06 06:54:37;;;;;;;21.88;13.68;;;;;;;-145.63;100.00;61273.97;5048922;28;20025;-66
2024/01/06 06:57:03;;;;;;;24.88;13.60;;;;;;;-145.63;100.00;61273.97;5050795;28;20051;-68
2024/01/06 06:59:29;;;;;;;21.02;13.48;;;;;;;-145.63;100.00;61273.97;5062369;28;20309;-67
2024/01/06 07:01:54;;;;;;;24.77;13.27;;;;;;;-145.63;100.00;61273.97;5062417;28;20408;-67
2024/01/06 07:04:20;;;;;;;21.17;13.07;;;;;;;-145.63;100.00;61273.97;5043251;28;20032;-67
2024/01/06 07:06:46;;;;;;;23.63;13.45;;;;;;;-145.63;100.00;61273.97;5056350;28;20355;-67
2024/01/06 07:09:11;;;;;;;21.70;13.40;;;;;;;-145.63;100.00;61273.97;5062310;28;20241;-68
2024/01/06 07:11:37;;;;;;;19.85;12.63;;;;;;;-145.63;100.00;61273.97;5062280;28;20098;-68
2024/01/06 07:14:03;;;;;;;23.42;13.85;;;;;;;-145.63;100.00;61273.97;5062874;28;20029;-67
2024/01/06 07:16:28;;;;;;;22.90;13.23;;;;;;;-145.63;100.00;61273.97;5046496;28;20025;-67
2024/01/06 07:18:54;;;;;;;24.65;13.15;;;;;;;-145.63;100.00;61273.97;5061298;28;20534;-67
2024/01/06 07:21:20;;;;;;;22.10;12.57;;;;;;;-145.63;100.00;61273.97;5058851;28;20028;-67
2024/01/06 07:23:45;;;;;;;22.75;13.05;;;;;;;-145.63;100.00;61273.97;5080384;28;20044;-67
2024/01/06 07:26:11;;;;;;;20.55;12.35;;;;;;;-145.63;100.00;61273.97;5065001;28;20048;-67
2024/01/06 07:28:37;;;;;;;21.48;13.35;;;;;;;-145.63;100.00;61273.97;5046160;28;20025;-68
2024/01/06 07:31:04;;;;;;;23.98;12.68;;;;;;;-145.63;100.00;61273.97;5062375;28;20043;-67
2024/01/06 07:33:30;;;;;;;19.55;13.15;;;;;;;-145.63;100.00;61273.97;5059903;28;20293;-66
2024/01/06 07:35:55;;;;;;;21.98;12.75;;;;;;;-145.63;100.00;61273.97;5085678;28;20040;-68
2024/01/06 07:38:21;;;;;;;20.25;12.10;;;;;;;-145.63;100.00;61273.97;5083382;28;20032;-67
2024/01/06 07:40:47;;;;;;;24.13;13.02;;;;;;;-145.63;100.00;61273.97;5065651;28;20029;-68
2024/01/06 07:43:12;;;;;;;18.85;12.85;;;;;;;-145.63;100.00;61273.97;5083582;28;20103;-66
2024/01/06 07:45:38;;;;;;;23.48;13.70;;;;;;;-145.63;100.00;61273.97;5072767;28;20025;-68
2024/01/06 07:48:04;;;;;;;21.80;13.63;;;;;;;-145.63;100.00;61273.97;5073909;28;20240;-68
2024/01/06 07:50:30;;;;;;;20.58;13.45;;;;;;;-145.63;100.00;61273.97;5085526;28;20031;-67
2024/01/06 07:52:55;;;;;;;22.05;13.90;;;;;;;-145.63;100.00;61273.97;5085157;28;20028;-66
2024/01/06 07:55:21;;;;;;;24.85;12.90;;;;;;;-145.63;100.00;61273.97;5084988;28;20028;-67
2024/01/06 07:57:47;;;;;;;22.65;13.60;;;;;;;-145.63;100.00;61273.97;5071490;28;20036;-69
2024/01/06 08:00:16;;;;;;;21.38;13.00;;;;;;;-145.63;100.00;61273.97;5074662;28;20027;-66
2024/01/06 08:02:42;;;;;;;22.58;13.57;;;;;;;-145.63;100.00;61273.97;5080179;28;20032;-67
2024/01/06 08:05:09;;;;;;;22.73;12.80;;;;;;;-145.63;100.00;61273.97;5065414;28;20033;-66
2024/01/06 08:07:35;;;;;;;26.65;13.98;;;;;;;-145.63;100.00;61273.97;5085477;28;20051;-67
2024/01/06 08:10:00;;;;;;;20.67;13.27;;;;;;;-145.63;100.00;61273.97;5085492;28;20032;-67
2024/01/06 08:12:26;;;;;;;23.52;13.60;;;;;;;-145.63;100.00;61273.97;5085236;28;20021;-67
2024/01/06 08:14:52;;;;;;;22.95;15.05;;;;;;;-145.63;100.00;61273.97;5078646;28;20028;-67
2024/01/06 08:17:18;;;;;;;24.90;13.30;;;;;;;-145.63;100.00;61273.97;5067007;28;20033;-67
2024/01/06 08:19:46;;;;;;;22.42;13.45;;;;;;;-145.63;100.00;61273.97;5085396;28;20421;-68
2024/01/06 08:22:12;;;;;;;26.75;14.98;;;;;;;-145.63;100.00;61273.97;5067783;28;20025;-67
2024/01/06 08:24:37;;;;;;;25.90;13.73;;;;;;;-145.63;100.00;61273.97;5077334;28;20024;-67
2024/01/06 08:27:03;;;;;;;21.50;13.57;;;;;;;-145.63;100.00;61273.97;5076037;28;20025;-67
2024/01/06 08:29:29;;;;;;;21.52;13.10;;;;;;;-145.63;100.00;61273.97;5067854;28;20205;-69
2024/01/06 08:31:55;;;;;;;23.30;14.27;;;;;;;-145.63;100.00;61273.97;5085049;28;20032;-68
2024/01/06 08:34:20;;;;;;;23.00;13.13;;;;;;;-145.63;100.00;61273.97;5066390;28;20310;-67
2024/01/06 08:36:46;;;;;;;23.02;14.27;;;;;;;-145.63;100.00;61273.97;5045407;28;20044;-67
2024/01/06 08:39:12;;;;;;;20.77;14.00;;;;;;;-145.63;100.00;61273.97;5055854;28;20105;-65
2024/01/06 08:41:38;;;;;;;24.73;14.30;;;;;;;-145.63;100.00;61273.97;5048681;28;20043;-68
2024/01/06 08:44:04;;;;;;;26.38;14.52;;;;;;;-145.63;100.00;61273.97;5064412;28;20029;-66
2024/01/06 08:46:30;;;;;;;24.17;14.88;;;;;;;-145.63;100.00;61273.97;5027678;28;20099;-66
2024/01/06 08:48:56;;;;;;;26.10;13.82;;;;;;;-145.63;100.00;61273.97;5059038;28;20208;-68
2024/01/06 08:51:23;;;;;;;26.27;15.27;;;;;;;-145.63;100.00;61273.97;5064452;28;20084;-68
2024/01/06 08:53:49;;;;;;;27.77;15.02;;;;;;;-145.63;100.00;61273.97;5058465;28;20032;-68
2024/01/06 08:56:17;;;;;;;26.15;15.57;;;;;;;-145.63;100.00;61273.97;5044984;28;20025;-67
2024/01/06 08:58:43;;;;;;;26.17;16.13;;;;;;;-145.63;100.00;61273.97;5063938;28;20029;-68
2024/01/06 09:01:10;;;;;;;29.30;15.32;;;;;;;-145.63;100.00;61273.97;5064265;28;20134;-68
2024/01/06 09:03:36;;;;;;;25.35;15.43;;;;;;;-145.63;100.00;61273.97;5052111;28;20273;-66
2024/01/06 09:06:02;;;;;;;28.88;16.42;;;;;;;-145.63;100.00;61273.97;5050925;28;20029;-68
2024/01/06 09:08:27;;;;;;;27.33;16.23;;;;;;;-145.63;100.00;61273.97;5064015;28;20025;-66
2024/01/06 09:10:58;;;;;;;26.02;17.70;;;;;;;-145.63;100.00;61273.97;5063775;28;20029;-67
2024/01/06 09:13:24;;;;;;;29.17;16.13;;;;;;;-145.63;100.00;61273.97;5064037;28;20305;-67
2024/01/06 09:15:51;;;;;;;25.98;15.15;;;;;;;-145.63;100.00;61273.97;5063997;28;20032;-67
2024/01/06 09:18:17;;;;;;;26.33;16.48;;;;;;;-145.63;100.00;61273.97;5054631;28;20032;-67
2024/01/06 09:20:42;;;;;;;28.50;15.35;;;;;;;-145.63;100.00;61273.97;5047884;28;20025;-67
2024/01/06 09:23:08;;;;;;;26.90;16.65;;;;;;;-145.63;100.00;61273.97;5063831;28;20032;-67
2024/01/06 09:25:33;;;;;;;26.45;16.42;;;;;;;-145.63;100.00;61273.97;5044276;28;20187;-67
2024/01/06 09:28:00;;;;;;;28.17;17.08;;;;;;;-145.63;100.00;61273.97;5073442;28;20025;-67
2024/01/06 09:30:27;;;;;;;29.35;16.83;;;;;;;-145.63;100.00;61273.97;5083459;28;20059;-67
2024/01/06 09:32:52;;;;;;;26.05;16.85;;;;;;;-145.63;100.00;61273.97;5083202;28;20025;-68
2024/01/06 09:35:18;;;;;;;26.50;15.13;;;;;;;-145.63;100.00;61273.97;5084419;28;20052;-67
2024/01/06 09:37:44;;;;;;;32.70;18.17;;;;;;;-145.63;100.00;61273.97;5083018;28;20071;-67
2024/01/06 09:40:15;;;;;;;30.17;18.95;;;;;;;-145.63;100.00;61273.97;5099800;28;20077;-67
2024/01/06 09:42:41;;;;;;;29.85;17.27;;;;;;;-145.63;100.00;61273.97;5072979;28;20205;-68
2024/01/06 09:45:08;;;;;;;25.40;15.82;;;;;;;-145.63;100.00;61273.97;5058156;28;20032;-67
2024/01/06 09:47:35;;;;;;;27.13;15.82;;;;;;;-145.63;100.00;61273.97;5066330;28;20233;-67
2024/01/06 09:50:04;;;;;;;31.80;17.30;;;;;;;-145.63;100.00;61273.97;5082925;28;20349;-68
2024/01/06 09:52:33;;;;;;;25.20;16.65;;;;;;;-145.63;100.00;61273.97;5083506;28;20039;-67
2024/01/06 09:55:00;;;;;;;26.67;16.48;;;;;;;-145.63;100.00;61273.97;5068358;28;20064;-67
2024/01/06 09:57:26;;;;;;;28.98;16.63;;;;;;;-145.63;100.00;61273.97;5073129;28;20325;-67
2024/01/06 09:59:52;;;;;;;28.55;17.60;;;;;;;-145.63;100.00;61273.97;5083119;28;20297;-67
2024/01/06 10:02:20;;;;;;;29.70;17.95;;;;;;;-145.63;100.00;61273.97;5082368;28;20024;-68
2024/01/06 10:04:46;;;;;;;26.52;17.35;;;;;;;-145.63;100.00;61273.97;5062718;28;20056;-68
2024/01/06 10:07:13;;;;;;;31.63;17.10;;;;;;;-145.63;100.00;61273.97;5078981;28;20350;-67
2024/01/06 10:09:41;;;;;;;27.23;16.83;;;;;;;-145.63;100.00;61273.97;5082964;28;20020;-68
2024/01/06 10:12:07;;;;;;;29.65;17.73;;;;;;;-145.63;100.00;61273.97;5082958;28;20024;-67
2024/01/06 10:14:33;;;;;;;32.97;20.35;;;;;;;-145.63;100.00;61273.97;5080387;28;20225;-67
2024/01/06 10:16:59;;;;;;;32.05;17.23;;;;;;;-145.63;100.00;61273.97;5062534;28;20096;-67
2024/01/06 10:19:25;;;;;;;34.95;18.63;;;;;;;-145.63;100.00;61273.97;5080829;28;20035;-68
2024/01/06 10:21:51;;;;;;;31.77;18.60;;;;;;;-145.63;100.00;61273.97;5069122;28;20044;-67
2024/01/06 10:24:19;;;;;;;30.42;17.67;;;;;;;-145.63;100.00;61273.97;5071239;28;20024;-67
2024/01/06 10:26:46;;;;;;;31.50;19.17;;;;;;;-145.63;100.00;61273.97;5078227;28;20071;-68
2024/01/06 10:29:13;;;;;;;33.97;21.30;;;;;;;-145.63;100.00;61273.97;5062599;28;20025;-67
2024/01/06 10:31:39;;;;;;;33.83;18.85;;;;;;;-145.63;100.00;61273.97;5082412;28;20020;-68
2024/01/06 10:34:05;;;;;;;28.98;18.33;;;;;;;-145.63;100.00;61273.97;5067315;28;20025;-68
2024/01/06 10:36:31;;;;;;;28.30;18.15;;;;;;;-145.63;100.00;61273.97;5060525;28;20041;-67
2024/01/06 10:38:57;;;;;;;33.05;18.60;;;;;;;-145.63;100.00;61273.97;5056426;28;20246;-67
2024/01/06 10:41:24;;;;;;;33.75;19.48;;;;;;;-145.63;100.00;61273.97;5043363;28;20025;-67
2024/01/06 10:43:51;;;;;;;29.40;18.30;;;;;;;-145.63;100.00;61273.97;5062204;28;20025;-67
2024/01/06 10:46:18;;;;;;;32.25;19.85;;;;;;;-145.63;100.00;61273.97;5045877;28;20026;-66
2024/01/06 10:48:45;;;;;;;32.05;20.92;;;;;;;-145.63;100.00;61273.97;5053676;28;20093;-66